Original METAR for KORH:
072154Z 24010KT 10SM FEW049 31/21 A3005 RMK AO2 LTG DSNT SW-NW SLP169 T03060206

Wind: 240° at 10 knots
Visibility: 10 statute miles
Sky conditions: Few clouds at 4,900 feet
Temperature: 87.8°F
Dew Point: 69.8°F
Altimeter: 30.05

Remarks:
-- METAR generated by an automated station with a precipitation discriminator.
-- Lightning
-- Sea level pressure: 1,016.9 millibars.
-- Precise hourly temperature and dew point: 30.6°C / 20.6°C

NOTE:
This METAR was retrieved from metars.com at:
http://www.metars.com/stations/KORH.html


Cessnas2Oshkosh, C2O, CessnaBaseCamp and The Pirep | Testimonials | Donations | FAQ | Privacy | Contact Us
are trademarks of Cessnas 2 Oshkosh, Inc. - Dothan, AL Copyright © 2008 - 2022 Cessnas 2 Oshkosh, Inc. All rights reserved.